Terminal Aerodrome Forecast
Issued by NWS

Home | Current Version | Previous Version | Text Only | Print | Product List | Glossary On
Versions: 1 2 3 4 5 6 7 8 9 10 11 12 13
647
FTUS45 KABQ 251741
TAFROW
TAF
KROW 251741Z 2518/2618 26012G20KT P6SM BKN120
     FM252000 25030G43KT P6SM BKN120
     FM260200 31014G24KT P6SM FEW090 BKN120
     FM261300 35018G30KT P6SM SCT035
     FM261730 35008KT P6SM FEW050=

USA.gov is the U.S. government's official web portal to all federal, state and local government web resources and services.